Flight Track Log - Related Links

Times and Time Zones

All times are in EDT time to prevent confusion due to time zone crossing. See the CCA1782 flight status page for this flight to view local times or setup timezone preferences in your user account.

Time Position Orientation Groundspeed Altitude Reporting Facility
EDT Latitude Longitude Course Direction KTS MPH feet Rate Location/Type
Fri 04:27:00 AM 43.7759 88.0376 108° East  Level Estimated
Fri 04:28:00 AM 43.7426 88.1780 108° East  Level Estimated
Fri 04:29:00 AM 43.7092 88.3183 108° East  Level Estimated
Fri 04:30:00 AM 43.6756 88.4584 108° East  Level Estimated
Fri 04:31:00 AM 43.6419 88.5984 108° East  Level Estimated
Fri 04:32:00 AM 43.6079 88.7382 108° East  Level Estimated
Fri 04:33:00 AM 43.5739 88.8778 109° East  Level Estimated
Fri 04:34:00 AM 43.5396 89.0173 109° East  Level Estimated
Fri 04:35:00 AM 43.5052 89.1567 109° East  Level Estimated
Fri 04:36:00 AM 43.4706 89.2959 109° East  Level Estimated
Fri 04:37:00 AM 43.4358 89.4349 109° East  Level Estimated
Fri 04:38:00 AM 43.4008 89.5737 109° East  Level Estimated
Fri 04:39:00 AM 43.3657 89.7124 109° East  Level Estimated
Fri 04:40:00 AM 43.3304 89.8510 109° East  Level Estimated
Fri 04:41:00 AM 43.2950 89.9893 109° East  Level Estimated
Fri 04:42:00 AM 43.2594 90.1275 109° East  Level Estimated
Fri 04:43:00 AM 43.2236 90.2656 110° East  Level Estimated
Fri 04:44:00 AM 43.1877 90.4035 110° East  Level Estimated
Fri 04:45:00 AM 43.1516 90.5412 110° East  Level Estimated
Fri 04:46:00 AM 43.1153 90.6788 110° East  Level Estimated
Fri 04:47:00 AM 43.0789 90.8162 110° East  Level Estimated
Fri 04:48:00 AM 43.0423 90.9534 110° East  Level Estimated
Fri 04:49:00 AM 43.0055 91.0905 110° East  Level Estimated
Fri 04:50:00 AM 42.9686 91.2274 110° East  Level Estimated
Fri 04:51:00 AM 42.9315 91.3641 110° East  Level Estimated
Fri 04:52:00 AM 42.8942 91.5007 110° East  Level Estimated
Fri 04:53:00 AM 42.8568 91.6371 110° East  Level Estimated
Fri 04:54:00 AM 42.8192 91.7734 111° Southeast  Level Estimated
Fri 04:55:00 AM 42.7815 91.9095 111° Southeast  Level Estimated
Fri 04:56:00 AM 42.7436 92.0454 111° Southeast  Level Estimated
Fri 04:57:00 AM 42.7055 92.1811 111° Southeast  Level Estimated
Fri 04:58:00 AM 42.6673 92.3167 111° Southeast  Level Estimated
Fri 04:59:00 AM 42.6289 92.4521 111° Southeast  Level Estimated
Fri 05:00:00 AM 42.5904 92.5874 111° Southeast  Level Estimated
Fri 05:01:00 AM 42.5517 92.7225 111° Southeast  Level Estimated
Fri 05:02:00 AM 42.5129 92.8574 111° Southeast  Level Estimated
Fri 05:03:00 AM 42.4738 92.9921 111° Southeast  Level Estimated
Fri 05:04:00 AM 42.4347 93.1267 111° Southeast  Level Estimated
Fri 05:05:00 AM 42.3953 93.2611 112° Southeast  Level Estimated
Fri 05:06:00 AM 42.3559 93.3953 112° Southeast  Level Estimated
Fri 05:07:00 AM 42.3162 93.5294 112° Southeast  Level Estimated
Fri 05:08:00 AM 42.2764 93.6633 112° Southeast  Level Estimated
Fri 05:09:00 AM 42.2365 93.7971 112° Southeast  Level Estimated
Fri 05:10:00 AM 42.1963 93.9306 112° Southeast  Level Estimated
Fri 05:11:00 AM 42.1561 94.0640 112° Southeast  Level Estimated
Fri 05:12:00 AM 42.1157 94.1972 112° Southeast  Level Estimated
Fri 05:13:00 AM 42.0751 94.3303 112° Southeast  Level Estimated
Fri 05:14:00 AM 42.0344 94.4632 112° Southeast  Level Estimated
Fri 05:15:00 AM 41.9935 94.5959 112° Southeast  Level Estimated
Fri 05:16:00 AM 41.9525 94.7284 113° Southeast  Level Estimated
Fri 05:17:00 AM 41.9113 94.8608 113° Southeast  Level Estimated
Fri 05:18:00 AM 41.8699 94.9930 113° Southeast  Level Estimated
Fri 05:19:00 AM 41.8284 95.1250 113° Southeast  Level Estimated
Fri 05:20:00 AM 41.7868 95.2569 113° Southeast  Level Estimated
Fri 05:21:00 AM 41.7450 95.3886 113° Southeast  Level Estimated
Fri 05:22:00 AM 41.7031 95.5201 113° Southeast  Level Estimated
Fri 05:23:00 AM 41.6610 95.6514 113° Southeast  Level Estimated
Fri 05:24:00 AM 41.6188 95.7826 113° Southeast  Level Estimated
Fri 05:25:00 AM 41.5764 95.9136 113° Southeast  Level Estimated
Fri 05:26:00 AM 41.5338 96.0444 113° Southeast  Level Estimated
Fri 05:27:00 AM 41.4911 96.1751 114° Southeast  Level Estimated
Fri 05:28:00 AM 41.4483 96.3055 114° Southeast  Level Estimated
Fri 05:29:00 AM 41.4053 96.4359 114° Southeast  Level Estimated
Fri 05:30:00 AM 41.3622 96.5660 114° Southeast  Level Estimated
Fri 05:31:00 AM 41.3190 96.6960 114° Southeast  Level Estimated
Fri 05:32:00 AM 41.2755 96.8258 114° Southeast  Level Estimated
Fri 05:33:00 AM 41.2320 96.9554 114° Southeast  Level Estimated
Fri 05:34:00 AM 41.1883 97.0848 114° Southeast  Level Estimated
Fri 05:35:00 AM 41.1444 97.2141 114° Southeast  Level Estimated
Fri 05:36:00 AM 41.1004 97.3432 114° Southeast  Level Estimated
Fri 05:37:00 AM 41.0563 97.4721 114° Southeast  Level Estimated
Fri 05:38:00 AM 41.0120 97.6009 114° Southeast  Level Estimated
Fri 05:39:00 AM 40.9676 97.7294 115° Southeast  Level Estimated
Fri 05:40:00 AM 40.9230 97.8578 115° Southeast  Level Estimated
Fri 05:41:00 AM 40.8783 97.9861 115° Southeast  Level Estimated
Fri 05:42:00 AM 40.8334 98.1142 115° Southeast  Level Estimated
Fri 05:43:00 AM 40.7884 98.2420 115° Southeast  Level Estimated
Fri 05:44:00 AM 40.7433 98.3698 115° Southeast  Level Estimated
Fri 05:45:00 AM 40.6980 98.4973 115° Southeast  Level Estimated
Fri 05:46:00 AM 40.6526 98.6246 115° Southeast  Level Estimated
Fri 05:47:00 AM 40.6070 98.7518 115° Southeast  Level Estimated
Fri 05:48:00 AM 40.5613 98.8789 115° Southeast  Level Estimated
Fri 05:49:00 AM 40.5155 99.0057 115° Southeast  Level Estimated
Fri 05:50:00 AM 40.4695 99.1324 115° Southeast  Level Estimated
Fri 05:51:00 AM 40.4234 99.2589 116° Southeast  Level Estimated
Fri 05:52:00 AM 40.3772 99.3852 116° Southeast  Level Estimated
Fri 05:53:00 AM 40.3308 99.5114 116° Southeast  Level Estimated
Fri 05:54:00 AM 40.2843 99.6373 116° Southeast  Level Estimated
Fri 05:55:00 AM 40.2376 99.7631 116° Southeast  Level Estimated
Fri 05:56:00 AM 40.1908 99.8888 116° Southeast  Level Estimated
Fri 05:57:00 AM 40.1439 100.0142 116° Southeast  Level Estimated
Fri 05:58:00 AM 40.0968 100.1395 116° Southeast  Level Estimated
Fri 05:59:00 AM 40.0496 100.2646 116° Southeast  Level Estimated
Fri 06:00:00 AM 40.0023 100.3895 116° Southeast  Level Estimated
Fri 06:01:00 AM 39.9548 100.5143 116° Southeast  Level Estimated
Fri 06:02:00 AM 39.9072 100.6389 116° Southeast  Level Estimated
Fri 06:03:00 AM 39.8595 100.7633 117° Southeast  Level Estimated
Fri 06:04:00 AM 39.8116 100.8876 117° Southeast  Level Estimated
Fri 06:05:00 AM 39.7636 101.0116 117° Southeast  Level Estimated
Fri 06:06:00 AM 39.7155 101.1355 117° Southeast  Level Estimated
Fri 06:07:00 AM 39.6672 101.2593 117° Southeast  Level Estimated
Fri 06:08:00 AM 39.6188 101.3828 117° Southeast  Level Estimated
Fri 06:09:00 AM 39.5703 101.5062 117° Southeast  Level Estimated
Fri 06:10:00 AM 39.5216 101.6294 117° Southeast  Level Estimated
Fri 06:11:00 AM 39.4728 101.7524 117° Southeast  Level Estimated
Fri 06:12:00 AM 39.4239 101.8753 117° Southeast  Level Estimated
Fri 06:13:00 AM 39.3749 101.9980 117° Southeast  Level Estimated
Fri 06:14:00 AM 39.3257 102.1205 117° Southeast  Level Estimated
Fri 06:15:00 AM 39.2764 102.2428 117° Southeast  Level Estimated
Fri 06:16:00 AM 39.2270 102.3650 118° Southeast  Level Estimated
Fri 06:17:00 AM 39.1774 102.4870 118° Southeast  Level Estimated
Fri 06:18:00 AM 39.1277 102.6088 118° Southeast  Level Estimated
Fri 06:19:00 AM 39.0779 102.7305 118° Southeast  Level Estimated
Fri 06:20:00 AM 39.0280 102.8520 118° Southeast  Level Estimated
Fri 06:21:00 AM 38.9779 102.9733 118° Southeast  Level Estimated
Fri 06:22:00 AM 38.9277 103.0944 118° Southeast  Level Estimated
Fri 06:23:00 AM 38.8774 103.2154 118° Southeast  Level Estimated
Fri 06:24:00 AM 38.8270 103.3362 118° Southeast  Level Estimated
Fri 06:25:00 AM 38.7764 103.4568 118° Southeast  Level Estimated
Fri 06:26:00 AM 38.7257 103.5773 118° Southeast  Level Estimated
Fri 06:27:00 AM 38.6749 103.6975 118° Southeast  Level Estimated
Fri 06:28:00 AM 38.6240 103.8176 118° Southeast  Level Estimated
Fri 06:29:00 AM 38.5729 103.9376 119° Southeast  Level Estimated
Fri 06:30:00 AM 38.5217 104.0574 119° Southeast  Level Estimated
Fri 06:31:00 AM 38.4704 104.1770 119° Southeast  Level Estimated
Fri 06:32:00 AM 38.4190 104.2964 119° Southeast  Level Estimated
Fri 06:33:00 AM 38.3675 104.4156 119° Southeast  Level Estimated
Fri 06:34:00 AM 38.3158 104.5347 119° Southeast  Level Estimated
Fri 06:35:00 AM 38.2640 104.6537 119° Southeast  Level Estimated
Fri 06:36:00 AM 38.2121 104.7724 119° Southeast  Level Estimated
Fri 06:37:00 AM 38.1601 104.8910 119° Southeast  Level Estimated
Fri 06:38:00 AM 38.1080 105.0094 119° Southeast  Level Estimated
Fri 06:39:00 AM 38.0557 105.1276 119° Southeast  Level Estimated
Fri 06:40:00 AM 38.0033 105.2457 119° Southeast  Level Estimated
Fri 06:41:00 AM 37.9508 105.3636 119° Southeast  Level Estimated
Fri 06:42:00 AM 37.8982 105.4814 119° Southeast  Level Estimated
Fri 06:43:00 AM 37.8455 105.5989 120° Southeast  Level Estimated
Fri 06:44:00 AM 37.7926 105.7163 120° Southeast  Level Estimated
Fri 06:45:00 AM 37.7397 105.8336 120° Southeast  Level Estimated
Fri 06:46:00 AM 37.6866 105.9506 120° Southeast  Level Estimated
Fri 06:47:00 AM 37.6334 106.0675 120° Southeast  Level Estimated
Fri 06:48:00 AM 37.5801 106.1842 120° Southeast  Level Estimated
Fri 06:49:00 AM 37.5267 106.3008 120° Southeast  Level Estimated
Fri 06:50:00 AM 37.4731 106.4172 120° Southeast  Level Estimated
Fri 06:51:00 AM 37.4195 106.5334 120° Southeast  Level Estimated
Fri 06:52:00 AM 37.3657 106.6495 120° Southeast  Level Estimated
Fri 06:53:00 AM 37.3118 106.7654 120° Southeast  Level Estimated
Fri 06:54:00 AM 37.2578 106.8811 120° Southeast  Level Estimated
Fri 06:55:00 AM 37.2037 106.9967 120° Southeast  Level Estimated
Fri 06:56:00 AM 37.1495 107.1121 120° Southeast  Level Estimated
Fri 06:57:00 AM 37.0952 107.2273 121° Southeast  Level Estimated
Fri 06:58:00 AM 37.0407 107.3424 121° Southeast  Level Estimated
Fri 06:59:00 AM 36.9862 107.4573 121° Southeast  Level Estimated
Fri 07:00:00 AM 36.9315 107.5720 121° Southeast  Level Estimated
Fri 07:01:00 AM 36.8767 107.6866 121° Southeast  Level Estimated
Fri 07:02:00 AM 36.8219 107.8010 121° Southeast  Level Estimated
Fri 07:03:00 AM 36.7669 107.9152 121° Southeast  Level Estimated
Fri 07:04:00 AM 36.7118 108.0293 121° Southeast  Level Estimated
Fri 07:05:00 AM 36.6566 108.1432 121° Southeast  Level Estimated
Fri 07:06:00 AM 36.6012 108.2570 121° Southeast  Level Estimated
Fri 07:07:00 AM 36.5458 108.3706 121° Southeast  Level Estimated
Fri 07:08:00 AM 36.4903 108.4840 121° Southeast  Level Estimated
Fri 07:09:00 AM 36.4346 108.5973 121° Southeast  Level Estimated
Fri 07:10:00 AM 36.3789 108.7104 121° Southeast  Level Estimated
Fri 07:11:00 AM 36.3230 108.8233 122° Southeast  Level Estimated
Fri 07:12:00 AM 36.2671 108.9361 122° Southeast  Level Estimated
Fri 07:13:00 AM 36.2110 109.0487 122° Southeast  Level Estimated
Fri 07:14:00 AM 36.1548 109.1611 122° Southeast  Level Estimated
Fri 07:15:00 AM 36.0986 109.2734 122° Southeast  Level Estimated
Fri 07:16:00 AM 36.0422 109.3856 122° Southeast  Level Estimated
Fri 07:17:00 AM 35.9857 109.4976 122° Southeast  Level Estimated
Fri 07:18:00 AM 35.9291 109.6094 122° Southeast  Level Estimated
Fri 07:19:00 AM 35.8724 109.7210 122° Southeast  Level Estimated
Fri 07:20:00 AM 35.8156 109.8325 122° Southeast  Level Estimated
Fri 07:21:00 AM 35.7587 109.9438 122° Southeast  Level Estimated
Fri 07:22:00 AM 35.7017 110.0550 122° Southeast  Level Estimated
Fri 07:23:00 AM 35.6446 110.1660 122° Southeast  Level Estimated
Fri 07:24:00 AM 35.5874 110.2769 122° Southeast  Level Estimated
Fri 07:25:00 AM 35.5301 110.3876 122° Southeast  Level Estimated
Fri 07:26:00 AM 35.4727 110.4981 123° Southeast  Level Estimated
Fri 07:27:00 AM 35.4152 110.6085 123° Southeast  Level Estimated
Fri 07:28:00 AM 35.3576 110.7187 123° Southeast  Level Estimated
Fri 07:29:00 AM 35.2999 110.8288 123° Southeast  Level Estimated

Login

Don't have an account? Register now (free) for customized features, flight alerts, and more!